Time;durP1;ratioP1;P1;durP2;ratioP2;P2;SDS_P1;SDS_P2;PMS_P1;PMS_P2;Temp;Humidity;BMP_temperature;BMP_pressure;BME280_temperature;BME280_humidity;BME280_pressure;Samples;Min_cycle;Max_cycle;Signal;HPM_P1;HPM_P2
2023/04/17 00:02:09;;;;;;;;;1.75;0.25;;;;;22.61;36.88;101856.91;5073738;27;46796;-67
2023/04/17 00:04:35;;;;;;;;;0.00;0.00;;;;;22.61;36.46;101851.56;5076117;27;45402;-67
2023/04/17 00:07:02;;;;;;;;;1.00;1.00;;;;;22.60;36.43;101848.06;5074263;27;45565;-67
2023/04/17 00:09:28;;;;;;;;;1.75;0.25;;;;;22.61;36.56;101841.78;5071484;27;45906;-67
2023/04/17 00:11:54;;;;;;;;;2.00;0.00;;;;;22.60;36.61;101853.38;5074500;28;46504;-68
2023/04/17 00:14:20;;;;;;;;;0.00;0.00;;;;;22.60;36.92;101844.53;5072102;27;45378;-67
2023/04/17 00:16:45;;;;;;;;;1.00;1.00;;;;;22.61;36.58;101840.91;5073844;27;45401;-67
2023/04/17 00:19:10;;;;;;;;;0.25;0.25;;;;;22.59;36.76;101826.78;5081336;27;62075;-67
2023/04/17 00:21:36;;;;;;;;;2.00;1.00;;;;;22.60;36.70;101831.19;5078151;28;67184;-67
2023/04/17 00:24:01;;;;;;;;;0.25;0.25;;;;;22.59;36.29;101827.63;5074712;27;48871;-67
2023/04/17 00:26:26;;;;;;;;;0.00;0.00;;;;;22.60;36.85;101828.53;5075995;28;46017;-67
2023/04/17 00:28:52;;;;;;;;;1.00;1.00;;;;;22.55;36.93;101823.44;5074994;27;64426;-67
2023/04/17 00:31:17;;;;;;;;;2.75;1.25;;;;;22.57;36.43;101826.88;5077357;28;47597;-67
2023/04/17 00:33:42;;;;;;;;;0.75;0.75;;;;;22.58;36.88;101833.94;5077095;28;45588;-68
2023/04/17 00:36:08;;;;;;;;;0.25;0.25;;;;;22.58;36.37;101836.63;5076343;28;45404;-68
2023/04/17 00:38:34;;;;;;;;;1.50;1.25;;;;;22.54;36.57;101824.38;5072924;27;45337;-67
2023/04/17 00:40:59;;;;;;;;;0.25;0.25;;;;;22.57;36.61;101826.88;5071142;27;45465;-68
2023/04/17 00:43:24;;;;;;;;;1.25;0.75;;;;;22.56;36.43;101823.38;5062485;27;45696;-67
2023/04/17 00:45:51;;;;;;;;;1.00;1.00;;;;;22.55;36.62;101815.44;5072815;27;45676;-67
2023/04/17 00:48:17;;;;;;;;;1.00;1.00;;;;;22.55;36.40;101810.13;5077424;27;45581;-67
2023/04/17 00:50:43;;;;;;;;;2.00;1.00;;;;;22.55;36.31;101816.28;5076104;28;45665;-67
2023/04/17 00:53:09;;;;;;;;;0.50;0.50;;;;;22.55;36.54;101812.78;5076809;27;45569;-67
2023/04/17 00:55:37;;;;;;;;;0.25;0.25;;;;;22.54;36.40;101803.03;5060016;27;45569;-67
2023/04/17 00:58:02;;;;;;;;;0.25;0.25;;;;;22.55;36.08;101807.44;5079032;27;45620;-67
2023/04/17 01:00:28;;;;;;;;;1.00;1.00;;;;;22.54;36.60;101800.38;5079262;27;67231;-67
2023/04/17 01:02:55;;;;;;;;;1.00;1.00;;;;;22.55;36.51;101800.28;5059335;27;73346;-68
2023/04/17 01:05:20;;;;;;;;;0.25;0.25;;;;;22.54;36.40;101798.59;5078510;27;45437;-67
2023/04/17 01:07:46;;;;;;;;;1.25;0.00;;;;;22.53;36.56;101793.34;5075778;28;53124;-68
2023/04/17 01:10:11;;;;;;;;;0.75;0.75;;;;;22.54;36.56;101795.03;5055629;27;60454;-67
2023/04/17 01:12:36;;;;;;;;;0.25;0.25;;;;;22.55;36.42;101796.78;5074759;28;47084;-68
2023/04/17 01:15:03;;;;;;;;;1.00;1.00;;;;;22.54;36.13;101798.59;5075140;27;46952;-67
2023/04/17 01:17:28;;;;;;;;;1.00;1.00;;;;;22.53;36.18;101796.88;5077035;28;45497;-67
2023/04/17 01:19:54;;;;;;;;;0.75;0.75;;;;;22.54;36.35;101792.38;5080313;27;62132;-67
2023/04/17 01:22:19;;;;;;;;;1.50;1.50;;;;;22.49;36.25;101789.16;5075068;27;46637;-67
2023/04/17 01:24:45;;;;;;;;;1.00;1.00;;;;;22.53;36.19;101788.00;5077416;28;45444;-68
2023/04/17 01:27:12;;;;;;;;;1.00;0.25;;;;;22.52;36.71;101797.84;5077690;27;45329;-68
2023/04/17 01:29:38;;;;;;;;;0.25;0.25;;;;;22.44;36.21;101778.75;5072459;27;46382;-67
2023/04/17 01:32:03;;;;;;;;;0.25;0.25;;;;;22.46;36.23;101782.19;5074412;27;46223;-67
2023/04/17 01:34:29;;;;;;;;;0.50;0.00;;;;;22.50;36.19;101789.03;5074038;28;47302;-67
2023/04/17 01:36:54;;;;;;;;;1.50;1.25;;;;;22.52;36.72;101795.16;5076434;28;66830;-68
2023/04/17 01:39:19;;;;;;;;;1.00;1.00;;;;;22.51;36.46;101795.25;5073330;27;59222;-68
2023/04/17 01:41:45;;;;;;;;;1.50;0.75;;;;;22.49;36.53;101790.00;5076703;27;64755;-68
2023/04/17 01:44:10;;;;;;;;;1.25;0.50;;;;;22.45;36.06;101788.50;5074408;27;46495;-67
2023/04/17 01:46:36;;;;;;;;;1.00;1.00;;;;;22.49;36.65;101791.81;5077392;27;65502;-67
2023/04/17 01:49:01;;;;;;;;;1.50;1.00;;;;;22.51;36.41;101797.91;5054385;28;72779;-67
2023/04/17 01:51:26;;;;;;;;;1.00;0.75;;;;;22.51;36.59;101803.25;5067177;28;66708;-67
2023/04/17 01:53:52;;;;;;;;;1.25;1.25;;;;;22.48;36.15;101795.44;5059101;28;46038;-67
2023/04/17 01:56:17;;;;;;;;;1.00;1.00;;;;;22.49;36.43;101795.34;5083117;27;45719;-67
2023/04/17 01:58:42;;;;;;;;;0.25;0.25;;;;;22.49;35.97;101797.16;5076807;27;62049;-67
2023/04/17 02:01:08;;;;;;;;;0.75;0.50;;;;;22.49;36.16;101792.69;5078075;28;45493;-67
2023/04/17 02:03:33;;;;;;;;;1.75;0.00;;;;;22.48;36.43;101790.09;5076055;27;67970;-67
2023/04/17 02:05:59;;;;;;;;;0.25;0.25;;;;;22.48;36.27;101796.28;5056846;28;45623;-67
2023/04/17 02:08:24;;;;;;;;;0.50;0.50;;;;;22.47;36.01;101788.38;5076645;27;48509;-68
2023/04/17 02:10:50;;;;;;;;;1.00;1.00;;;;;22.47;36.21;101791.91;5074056;27;45453;-68
2023/04/17 02:13:15;;;;;;;;;0.25;0.00;;;;;22.46;36.31;101795.53;5076129;28;64297;-68
2023/04/17 02:15:41;;;;;;;;;1.75;0.00;;;;;22.46;36.09;101790.19;5073010;27;51196;-67
2023/04/17 02:18:07;;;;;;;;;1.50;0.25;;;;;22.47;36.00;101785.69;5088388;27;46353;-67
2023/04/17 02:20:36;;;;;;;;;1.75;1.50;;;;;22.47;36.12;101789.25;5075056;27;45453;-67
2023/04/17 02:23:03;;;;;;;;;1.00;1.00;;;;;22.48;36.16;101795.44;5076863;28;45361;-67
2023/04/17 02:25:29;;;;;;;;;2.00;0.75;;;;;22.46;35.98;101794.66;5076146;27;45429;-67
2023/04/17 02:27:55;;;;;;;;;0.25;0.25;;;;;22.47;36.21;101785.69;5058812;28;46919;-67
2023/04/17 02:30:21;;;;;;;;;1.25;1.00;;;;;22.47;36.55;101789.25;5081040;27;45491;-67
2023/04/17 02:32:46;;;;;;;;;1.00;0.25;;;;;22.45;36.44;101782.28;5074941;27;45454;-67
2023/04/17 02:35:11;;;;;;;;;1.25;0.50;;;;;22.46;36.00;101782.19;5055928;28;45595;-67
2023/04/17 02:37:37;;;;;;;;;2.00;0.50;;;;;22.47;35.92;101781.25;5072532;27;46914;-67
2023/04/17 02:40:06;;;;;;;;;1.00;1.00;;;;;22.46;36.18;101784.00;5079470;27;45398;-67
2023/04/17 02:42:31;;;;;;;;;0.75;0.50;;;;;22.46;36.28;101786.66;5061051;28;45358;-67
2023/04/17 02:44:56;;;;;;;;;1.00;1.00;;;;;22.43;35.99;101779.69;5074479;27;45391;-68
2023/04/17 02:47:22;;;;;;;;;0.00;0.00;;;;;22.45;36.09;101784.94;5075324;27;72548;-67
2023/04/17 02:49:47;;;;;;;;;0.00;0.00;;;;;22.46;36.21;101786.66;5080092;27;71598;-67
2023/04/17 02:52:12;;;;;;;;;1.00;1.00;;;;;22.44;36.01;101786.75;5056719;28;61733;-67
2023/04/17 02:54:38;;;;;;;;;1.00;1.00;;;;;22.46;36.18;101787.50;5080337;27;59845;-67
2023/04/17 02:57:03;;;;;;;;;1.50;1.25;;;;;22.42;36.56;101791.34;5076086;28;47903;-68
2023/04/17 02:59:28;;;;;;;;;1.00;1.00;;;;;22.44;36.46;101783.25;5073909;27;45459;-68
2023/04/17 03:01:54;;;;;;;;;1.50;1.50;;;;;22.43;36.39;101781.50;5074477;27;45349;-67
2023/04/17 03:04:20;;;;;;;;;1.75;1.75;;;;;22.43;36.00;101778.84;5072948;27;67046;-67
2023/04/17 03:06:46;;;;;;;;;1.75;0.25;;;;;22.43;35.88;101776.19;5065791;27;45283;-68
2023/04/17 03:09:13;;;;;;;;;0.00;0.00;;;;;22.43;36.04;101776.19;5058315;28;73357;-68
2023/04/17 03:11:38;;;;;;;;;2.50;1.00;;;;;22.43;36.23;101778.84;5077437;28;45358;-68
2023/04/17 03:14:04;;;;;;;;;3.50;1.25;;;;;22.43;35.89;101779.69;5075527;28;45563;-67
2023/04/17 03:16:29;;;;;;;;;1.75;1.00;;;;;22.42;36.10;101772.66;5075918;28;45462;-67
2023/04/17 03:18:55;;;;;;;;;0.75;0.75;;;;;22.43;36.04;101773.50;5076535;27;45552;-68
2023/04/17 03:21:20;;;;;;;;;2.00;1.00;;;;;22.40;36.20;101774.56;5074658;28;51633;-67
2023/04/17 03:23:45;;;;;;;;;0.25;0.25;;;;;22.40;36.17;101776.34;5075898;27;70547;-67
2023/04/17 03:26:11;;;;;;;;;1.00;1.00;;;;;22.39;36.34;101780.84;5075856;28;46322;-68
2023/04/17 03:28:36;;;;;;;;;1.75;1.00;;;;;22.41;35.90;101784.25;5056916;28;46121;-67
2023/04/17 03:31:01;;;;;;;;;4.25;0.25;;;;;22.41;36.26;101775.41;5070158;27;45355;-68
2023/04/17 03:33:27;;;;;;;;;1.00;1.00;;;;;22.41;35.90;101778.94;5051784;28;60481;-68
2023/04/17 03:35:52;;;;;;;;;1.00;0.00;;;;;22.42;36.34;101779.81;5057986;28;46980;-68
2023/04/17 03:38:17;;;;;;;;;0.00;0.00;;;;;22.39;36.35;101772.00;5056005;27;71582;-67
2023/04/17 03:40:43;;;;;;;;;2.50;1.00;;;;;22.41;36.04;101778.09;5074123;28;61025;-67
2023/04/17 03:43:08;;;;;;;;;0.50;0.50;;;;;22.39;35.85;101780.00;5076029;28;73091;-67
2023/04/17 03:45:34;;;;;;;;;0.00;0.00;;;;;22.40;36.04;101776.34;5071052;27;45311;-67
2023/04/17 03:48:00;;;;;;;;;1.00;1.00;;;;;22.39;35.89;101780.84;5076583;27;45378;-67
2023/04/17 03:50:25;;;;;;;;;0.50;0.25;;;;;22.39;35.94;101786.19;5078447;27;68797;-67
2023/04/17 03:52:50;;;;;;;;;0.25;0.25;;;;;22.40;36.24;101784.34;5078436;28;65826;-67
2023/04/17 03:55:16;;;;;;;;;3.75;0.25;;;;;22.39;35.75;101780.00;5077695;27;74075;-67
2023/04/17 03:57:41;;;;;;;;;1.50;1.00;;;;;22.33;35.93;101782.06;5077599;27;45532;-67
2023/04/17 04:00:09;;;;;;;;;1.00;1.00;;;;;22.37;36.21;101791.59;5079176;27;63417;-68
2023/04/17 04:02:35;;;;;;;;;5.00;1.75;;;;;22.39;36.19;101796.84;5063284;28;45450;-67
2023/04/17 04:05:00;;;;;;;;;1.00;1.00;;;;;22.36;36.18;101795.22;5075036;27;46585;-68
2023/04/17 04:07:26;;;;;;;;;1.00;1.00;;;;;22.39;36.07;101799.50;5063214;28;45396;-67
2023/04/17 04:09:51;;;;;;;;;1.00;1.00;;;;;22.36;36.11;101792.56;5061843;28;45307;-67
2023/04/17 04:12:16;;;;;;;;;0.25;0.25;;;;;22.38;36.27;101803.09;5081352;27;61522;-67
2023/04/17 04:14:42;;;;;;;;;1.00;1.00;;;;;22.36;36.35;101789.00;5076379;27;65751;-67
2023/04/17 04:17:07;;;;;;;;;0.50;0.25;;;;;22.35;35.98;101790.84;5073265;27;60035;-67
2023/04/17 04:19:32;;;;;;;;;2.00;1.00;;;;;22.35;36.24;101792.66;5082053;27;52667;-67
2023/04/17 04:21:57;;;;;;;;;1.25;1.25;;;;;22.34;36.27;101793.59;5081609;27;50716;-67
2023/04/17 04:24:24;;;;;;;;;1.50;1.50;;;;;22.34;36.16;101791.78;5079445;27;68697;-68
2023/04/17 04:26:49;;;;;;;;;1.00;1.00;;;;;22.33;35.96;101790.06;5084864;27;45321;-68
2023/04/17 04:29:15;;;;;;;;;1.00;1.00;;;;;22.35;36.09;101792.66;5074875;27;45477;-68
2023/04/17 04:31:41;;;;;;;;;2.75;1.00;;;;;22.33;35.95;101791.88;5076041;27;67724;-68
2023/04/17 04:34:07;;;;;;;;;1.00;1.00;;;;;22.36;35.84;101799.69;5065698;28;47177;-68
2023/04/17 04:36:35;;;;;;;;;1.00;1.00;;;;;22.35;35.78;101801.50;5066013;27;45338;-68
2023/04/17 04:39:06;;;;;;;;;1.75;1.00;;;;;22.34;35.84;101813.09;5084075;27;45489;-68
2023/04/17 04:41:32;;;;;;;;;0.25;0.25;;;;;22.32;35.69;101808.81;5081579;27;45410;-68
2023/04/17 04:44:01;;;;;;;;;0.75;0.75;;;;;22.31;36.04;101810.66;5077504;28;46456;-68
2023/04/17 04:46:27;;;;;;;;;2.00;2.00;;;;;22.33;35.99;101815.91;5079851;27;45776;-68
2023/04/17 04:48:52;;;;;;;;;1.00;1.00;;;;;22.31;36.14;101810.66;5081080;27;45310;-68
2023/04/17 04:51:18;;;;;;;;;1.25;0.50;;;;;22.34;35.87;101814.91;5074048;27;45458;-67
2023/04/17 04:53:43;;;;;;;;;1.00;1.00;;;;;22.32;36.11;101817.69;5087579;27;45536;-67
2023/04/17 04:56:09;;;;;;;;;1.50;0.75;;;;;22.33;36.15;101819.41;5076719;27;45508;-67
2023/04/17 04:58:34;;;;;;;;;0.00;0.00;;;;;22.31;35.61;101815.97;5081279;27;45473;-67
2023/04/17 05:01:00;;;;;;;;;0.00;0.00;;;;;22.29;36.34;101806.34;5065183;28;45225;-67
2023/04/17 05:03:25;;;;;;;;;1.50;1.00;;;;;22.32;35.98;101817.69;5079746;27;45700;-67
2023/04/17 05:05:50;;;;;;;;;1.00;1.00;;;;;22.30;36.07;101814.25;5078258;27;45299;-67
2023/04/17 05:08:16;;;;;;;;;1.75;1.75;;;;;22.29;36.01;101809.00;5074041;27;60195;-67
2023/04/17 05:10:41;;;;;;;;;0.50;0.25;;;;;22.31;35.64;101813.31;5076903;27;45399;-67
2023/04/17 05:13:06;;;;;;;;;1.00;1.00;;;;;22.31;35.60;101813.31;5085253;27;45683;-67
2023/04/17 05:15:32;;;;;;;;;1.00;1.00;;;;;22.31;35.61;101807.09;5081778;27;45407;-67
2023/04/17 05:17:57;;;;;;;;;1.00;1.00;;;;;22.29;35.86;101809.88;5079646;27;61235;-67
2023/04/17 05:20:24;;;;;;;;;1.50;1.50;;;;;22.29;35.66;101807.22;5076421;27;45668;-67
2023/04/17 05:22:50;;;;;;;;;1.25;1.00;;;;;22.30;36.14;101816.91;5082759;27;45659;-67
2023/04/17 05:25:15;;;;;;;;;5.00;2.00;;;;;22.28;36.01;101816.16;5076120;27;45542;-67
2023/04/17 05:27:41;;;;;;;;;1.75;1.75;;;;;22.28;35.67;101809.97;5079333;27;47330;-67
2023/04/17 05:30:07;;;;;;;;;1.50;1.00;;;;;22.28;35.86;101807.31;5079828;27;66439;-67
2023/04/17 05:32:33;;;;;;;;;0.75;0.75;;;;;22.29;36.09;101817.88;5053949;28;47044;-68
2023/04/17 05:34:59;;;;;;;;;2.00;1.75;;;;;22.29;35.91;101814.34;5079050;27;45794;-68
2023/04/17 05:37:24;;;;;;;;;1.00;1.00;;;;;22.28;35.87;101817.97;5082298;27;45457;-68
2023/04/17 05:39:50;;;;;;;;;1.25;1.25;;;;;22.28;36.35;101815.31;5075378;27;59605;-70
2023/04/17 05:42:15;;;;;;;;;1.25;1.00;;;;;22.28;36.10;101815.31;5057749;28;47220;-68
2023/04/17 05:44:41;;;;;;;;;0.50;0.50;;;;;22.26;36.04;101814.50;5077518;27;45619;-76
2023/04/17 05:47:06;;;;;;;;;5.25;3.50;;;;;22.27;35.72;101822.41;5047806;28;45481;-67
2023/04/17 05:49:31;;;;;;;;;8.75;7.25;;;;;22.25;36.03;101826.09;5080561;27;45382;-68
2023/04/17 05:51:57;;;;;;;;;10.75;8.00;;;;;22.23;35.76;101830.69;5074512;28;71202;-70
2023/04/17 05:54:22;;;;;;;;;12.25;9.25;;;;;22.23;35.48;101822.69;5080918;27;70147;-71
2023/04/17 05:56:48;;;;;;;;;9.25;8.50;;;;;22.19;35.30;101825.53;5079310;27;63728;-71
2023/04/17 05:59:14;;;;;;;;;11.75;9.00;;;;;22.15;35.58;101823.09;5079097;27;47100;-71
2023/04/17 06:01:39;;;;;;;;;11.25;9.00;;;;;22.14;35.18;101824.06;5074100;28;71182;-71
2023/04/17 06:04:05;;;;;;;;;12.75;10.25;;;;;22.10;35.38;101831.41;5054665;28;49630;-72
2023/04/17 06:06:30;;;;;;;;;12.00;10.00;;;;;22.07;35.21;101833.38;5054833;28;45529;-68
2023/04/17 06:08:56;;;;;;;;;11.25;10.25;;;;;22.04;35.15;101829.06;5079382;27;54632;-70
2023/04/17 06:11:21;;;;;;;;;8.25;8.25;;;;;22.04;34.88;101828.22;5074032;27;67779;-66
2023/04/17 06:13:47;;;;;;;;;13.50;11.25;;;;;22.02;35.39;101830.13;5077171;27;45429;-68
2023/04/17 06:16:12;;;;;;;;;10.25;8.00;;;;;21.99;35.24;101829.34;5077586;28;51479;-67
2023/04/17 06:18:38;;;;;;;;;11.75;10.00;;;;;21.98;35.20;101835.63;5076202;27;45370;-65
2023/04/17 06:21:06;;;;;;;;;11.25;9.25;;;;;21.96;35.26;101831.34;5053029;28;47481;-68
2023/04/17 06:23:31;;;;;;;;;12.50;9.75;;;;;21.97;34.71;101839.25;5075568;28;45440;-68
2023/04/17 06:25:56;;;;;;;;;10.50;10.00;;;;;21.94;35.35;101828.75;5075281;27;67307;-66
2023/04/17 06:28:21;;;;;;;;;11.75;11.00;;;;;21.94;35.06;101833.25;5083002;27;47865;-67
2023/04/17 06:30:47;;;;;;;;;7.00;7.00;;;;;21.93;35.05;101828.84;5083976;27;46398;-67
2023/04/17 06:33:12;;;;;;;;;8.75;7.00;;;;;21.93;35.13;101837.69;5063038;28;45683;-68
2023/04/17 06:35:38;;;;;;;;;8.75;6.50;;;;;21.89;35.08;101829.97;5074730;27;45459;-67
2023/04/17 06:38:03;;;;;;;;;6.50;5.00;;;;;21.94;34.83;101838.56;5072667;27;45421;-68
2023/04/17 06:40:28;;;;;;;;;8.00;5.50;;;;;21.94;35.27;101836.75;5074503;27;68847;-64
2023/04/17 06:42:55;;;;;;;;;5.75;4.50;;;;;21.97;35.07;101841.91;5076872;27;45473;-65
2023/04/17 06:45:20;;;;;;;;;5.50;4.50;;;;;21.97;34.76;101844.59;5072325;27;46200;-64
2023/04/17 06:47:46;;;;;;;;;6.00;5.00;;;;;22.00;35.21;101840.88;5062678;28;72572;-63
2023/04/17 06:50:11;;;;;;;;;5.00;5.00;;;;;22.01;34.70;101837.28;5078223;27;46924;-63
2023/04/17 06:52:36;;;;;;;;;4.75;4.00;;;;;22.04;35.24;101842.41;5077039;27;66915;-67
2023/04/17 06:55:02;;;;;;;;;5.75;4.00;;;;;22.03;35.02;101840.69;5077585;27;45842;-65
2023/04/17 06:57:27;;;;;;;;;4.25;4.25;;;;;22.08;35.39;101851.06;5077069;27;52706;-66
2023/04/17 06:59:52;;;;;;;;;5.00;5.00;;;;;22.07;35.54;101850.22;5073916;27;45441;-65
2023/04/17 07:02:18;;;;;;;;;6.25;4.75;;;;;22.05;35.15;101849.47;5076375;27;72719;-65
2023/04/17 07:04:43;;;;;;;;;3.00;2.00;;;;;22.13;35.47;101851.69;5073912;28;45786;-67
2023/04/17 07:07:09;;;;;;;;;4.00;4.00;;;;;22.14;35.57;101854.25;5077607;27;45513;-66
2023/04/17 07:09:34;;;;;;;;;5.50;3.25;;;;;22.14;35.22;101853.41;5083308;27;45698;-65
2023/04/17 07:11:59;;;;;;;;;5.00;5.00;;;;;22.17;35.25;101856.75;5071223;27;72981;-66
2023/04/17 07:14:25;;;;;;;;;5.25;3.00;;;;;22.19;35.60;101859.34;5076413;27;47561;-66
2023/04/17 07:16:50;;;;;;;;;5.00;3.25;;;;;22.22;35.32;101867.13;5082820;27;45472;-66
2023/04/17 07:19:15;;;;;;;;;2.50;2.50;;;;;22.24;35.12;101862.59;5066069;27;69031;-66
2023/04/17 07:21:41;;;;;;;;;3.00;3.00;;;;;22.27;35.66;101869.56;5085018;27;48446;-66
2023/04/17 07:24:06;;;;;;;;;3.25;3.25;;;;;22.26;35.67;101871.34;5076271;28;45755;-66
2023/04/17 07:26:31;;;;;;;;;6.00;4.25;;;;;22.28;35.34;101871.31;5080897;27;45456;-66
2023/04/17 07:28:57;;;;;;;;;7.75;3.00;;;;;22.30;35.81;101878.25;5077595;27;45421;-66
2023/04/17 07:31:22;;;;;;;;;2.25;2.25;;;;;22.31;35.72;101873.75;5081276;27;61954;-66
2023/04/17 07:33:48;;;;;;;;;3.25;2.75;;;;;22.34;35.32;101870.94;5080029;27;66056;-66
2023/04/17 07:36:13;;;;;;;;;5.75;3.75;;;;;22.35;35.23;101878.84;5081192;27;45370;-67
2023/04/17 07:38:40;;;;;;;;;4.00;4.00;;;;;22.35;35.70;101875.34;5078402;27;52690;-66
2023/04/17 07:41:05;;;;;;;;;6.75;4.00;;;;;22.36;35.54;101877.03;5080026;28;45380;-66
2023/04/17 07:43:30;;;;;;;;;3.00;2.75;;;;;22.40;35.86;101881.25;5081203;27;45737;-65
2023/04/17 07:45:57;;;;;;;;;3.50;2.75;;;;;22.42;35.44;101886.50;5058278;28;72481;-66
2023/04/17 07:48:23;;;;;;;;;3.50;3.50;;;;;22.43;35.41;101881.06;5080689;27;45449;-65
2023/04/17 07:50:49;;;;;;;;;6.25;3.75;;;;;22.46;35.44;101880.88;5053925;27;45267;-65
2023/04/17 07:53:14;;;;;;;;;3.25;3.25;;;;;22.48;35.59;101880.78;5077731;27;45400;-65
2023/04/17 07:55:40;;;;;;;;;5.75;4.75;;;;;22.49;35.75;101882.53;5071147;27;71403;-65
2023/04/17 07:58:05;;;;;;;;;9.00;5.50;;;;;22.51;35.99;101883.28;5080853;27;46024;-66
2023/04/17 08:00:31;;;;;;;;;5.50;3.25;;;;;22.51;35.98;101885.97;5058737;27;45378;-65
2023/04/17 08:02:57;;;;;;;;;3.25;3.25;;;;;22.53;35.51;101884.91;5082073;27;45361;-66
2023/04/17 08:05:22;;;;;;;;;4.25;4.25;;;;;22.56;35.78;101883.88;5075705;27;45303;-66
2023/04/17 08:07:48;;;;;;;;;7.00;4.00;;;;;22.54;35.59;101883.97;5088455;27;45628;-66
2023/04/17 08:10:13;;;;;;;;;5.00;4.75;;;;;22.55;35.76;101885.66;5072280;27;59705;-67
2023/04/17 08:12:39;;;;;;;;;4.50;3.25;;;;;22.58;36.02;101883.78;5059507;28;58962;-67
2023/04/17 08:15:04;;;;;;;;;6.00;5.25;;;;;22.58;35.61;101883.78;5079198;27;45565;-67
2023/04/17 08:17:30;;;;;;;;;6.25;6.25;;;;;22.56;36.04;101876.72;5080394;27;47203;-67
2023/04/17 08:20:00;;;;;;;;;7.00;5.00;;;;;22.59;35.54;101878.34;5083609;27;45390;-68
2023/04/17 08:22:27;;;;;;;;;3.00;2.50;;;;;22.59;35.95;101878.34;5087833;27;45371;-66
2023/04/17 08:24:56;;;;;;;;;7.50;6.75;;;;;22.59;36.19;101882.81;5054087;28;45730;-67
2023/04/17 08:27:23;;;;;;;;;5.25;5.25;;;;;22.61;36.02;101884.47;5081224;27;46186;-67
2023/04/17 08:29:49;;;;;;;;;9.25;5.50;;;;;22.58;36.10;101886.47;5063471;27;45805;-70
2023/04/17 08:32:15;;;;;;;;;6.75;6.00;;;;;22.57;35.54;101888.25;5075481;27;45371;-69
2023/04/17 08:34:41;;;;;;;;;5.25;4.25;;;;;22.60;35.95;101882.75;5076166;27;45837;-67
2023/04/17 08:37:06;;;;;;;;;5.25;5.25;;;;;22.58;35.85;101878.47;5078881;27;46364;-68
2023/04/17 08:39:31;;;;;;;;;6.75;4.75;;;;;22.60;36.06;101885.41;5075868;27;45398;-68
2023/04/17 08:42:01;;;;;;;;;7.50;4.25;;;;;22.62;35.80;101887.97;5065951;28;45337;-66
2023/04/17 08:44:27;;;;;;;;;4.25;4.25;;;;;22.63;35.77;101900.34;5077734;28;45436;-67
2023/04/17 08:46:56;;;;;;;;;5.00;3.50;;;;;22.64;36.15;101888.75;5077289;27;56406;-67
2023/04/17 08:49:22;;;;;;;;;8.75;5.25;;;;;22.66;36.00;101892.19;5060039;27;45901;-68
2023/04/17 08:51:47;;;;;;;;;8.75;5.75;;;;;22.65;36.30;101883.31;5077412;28;45378;-66
2023/04/17 08:54:13;;;;;;;;;6.25;4.00;;;;;22.68;36.16;101885.81;5077971;27;51984;-64
2023/04/17 08:56:38;;;;;;;;;5.25;5.25;;;;;22.67;36.32;101873.41;5062611;28;47965;-66
2023/04/17 08:59:03;;;;;;;;;8.75;5.25;;;;;22.73;36.26;101877.50;5079394;27;65333;-67
2023/04/17 09:01:29;;;;;;;;;8.25;4.50;;;;;22.75;36.08;101881.81;5077876;28;64806;-65
2023/04/17 09:03:55;;;;;;;;;6.75;6.25;;;;;22.75;36.44;101879.16;5076046;27;45543;-64
2023/04/17 09:06:21;;;;;;;;;5.75;5.75;;;;;22.78;36.29;101882.59;5079195;27;45422;-65
2023/04/17 09:08:58;;;;;;;;;4.50;4.50;;;;;22.78;35.88;101883.44;5061183;27;45514;-66
2023/04/17 09:11:24;;;;;;;;;5.50;5.50;;;;;22.80;36.43;101888.69;5083668;27;45514;-67
2023/04/17 09:13:49;;;;;;;;;5.75;5.75;;;;;22.80;36.20;101886.88;5058143;27;45661;-67
2023/04/17 09:16:15;;;;;;;;;7.75;7.75;;;;;22.80;36.07;101876.19;5075898;28;70876;-66
2023/04/17 09:18:45;;;;;;;;;10.00;8.75;;;;;22.83;36.48;101885.84;5074676;27;45312;-68
2023/04/17 09:21:11;;;;;;;;;7.25;4.25;;;;;22.84;36.25;101885.75;5052532;28;45444;-67
2023/04/17 09:23:51;;;;;;;;;8.00;7.00;;;;;22.86;36.48;101888.31;5075721;28;46461;-66
2023/04/17 09:26:20;;;;;;;;;7.00;5.50;;;;;22.84;36.28;101883.09;5076690;28;45591;-66
2023/04/17 09:29:09;;;;;;;;;5.50;5.00;;;;;22.87;36.19;101887.34;5070554;27;45418;-65
2023/04/17 09:31:36;;;;;;;;;7.75;7.75;;;;;22.85;35.95;101884.78;5052451;28;45368;-65
2023/04/17 09:34:01;;;;;;;;;9.00;7.00;;;;;22.88;36.31;101891.75;5076462;27;45620;-68
2023/04/17 09:36:29;;;;;;;;;7.75;6.50;;;;;22.86;36.37;101897.19;5068328;27;47329;-67
2023/04/17 09:38:56;;;;;;;;;9.25;6.75;;;;;22.84;36.13;101885.75;5077677;27;45802;-67
2023/04/17 09:41:23;;;;;;;;;6.75;6.75;;;;;22.87;36.32;101887.34;5082556;27;45387;-67
2023/04/17 09:43:48;;;;;;;;;8.25;6.25;;;;;22.87;36.22;101895.38;5070276;27;45497;-67
2023/04/17 09:46:36;;;;;;;;;8.00;6.50;;;;;22.88;36.31;101894.44;5078800;27;45658;-67
2023/04/17 09:49:27;;;;;;;;;8.50;8.00;;;;;22.87;35.96;101890.03;5082995;27;45473;-67
2023/04/17 09:51:53;;;;;;;;;7.75;5.75;;;;;22.86;36.29;101893.63;5078935;27;45374;-67
2023/04/17 09:54:19;;;;;;;;;8.50;7.00;;;;;22.84;35.82;101880.41;5072761;27;69107;-67
2023/04/17 09:56:46;;;;;;;;;8.50;8.00;;;;;22.83;36.04;101884.03;5074344;27;45433;-67
2023/04/17 09:59:11;;;;;;;;;9.50;9.00;;;;;22.83;35.89;101888.50;5074134;27;45370;-67
2023/04/17 10:01:37;;;;;;;;;10.50;8.25;;;;;22.82;35.97;101887.63;5071861;27;46035;-67
2023/04/17 10:04:03;;;;;;;;;7.75;6.25;;;;;22.82;35.77;101886.78;5071702;28;46337;-67
2023/04/17 10:06:33;;;;;;;;;9.00;6.00;;;;;22.83;35.65;101885.84;5072854;28;46102;-67
2023/04/17 10:08:59;;;;;;;;;9.75;6.75;;;;;22.82;35.97;101890.28;5078978;27;45933;-67
2023/04/17 10:11:29;;;;;;;;;7.75;6.25;;;;;22.81;35.73;101893.09;5076528;27;45299;-67
2023/04/17 10:14:03;;;;;;;;;6.75;6.25;;;;;22.82;35.69;101898.31;5056695;28;45628;-67
2023/04/17 10:16:39;;;;;;;;;6.00;6.00;;;;;22.82;35.88;101892.97;5078390;27;45444;-67
2023/04/17 10:19:25;;;;;;;;;7.00;6.75;;;;;22.83;36.05;101886.69;5080107;27;45831;-68
2023/04/17 10:22:18;;;;;;;;;6.75;6.00;;;;;22.84;36.27;101879.53;5056201;28;45513;-78
2023/04/17 10:24:46;;;;;;;;;9.50;7.75;;;;;22.84;36.20;101877.75;5077280;27;45239;-67
2023/04/17 10:27:23;;;;;;;;;5.25;5.25;;;;;22.85;36.18;101875.91;5077848;28;47208;-67
2023/04/17 10:29:58;;;;;;;;;8.25;7.25;;;;;22.85;36.01;101874.09;5078490;27;45481;-66
2023/04/17 10:32:27;;;;;;;;;8.00;7.50;;;;;22.84;36.09;101871.53;5045328;27;45443;-66
2023/04/17 10:34:55;;;;;;;;;11.50;6.50;;;;;22.86;36.25;101877.63;5073361;28;45477;-66
2023/04/17 10:37:50;;;;;;;;;10.25;7.75;;;;;22.86;35.78;101881.16;5060304;27;45592;-79
2023/04/17 10:40:41;;;;;;;;;17.75;14.50;;;;;22.88;36.45;101867.75;5079448;27;45855;-69
2023/04/17 10:43:11;;;;;;;;;42.00;32.50;;;;;22.84;36.10;101871.53;5075538;28;45500;-66
2023/04/17 10:46:04;;;;;;;;;53.50;40.00;;;;;22.81;35.94;101877.91;5070548;28;45510;-66
2023/04/17 10:48:48;;;;;;;;;53.25;41.50;;;;;22.66;35.85;101876.16;5054084;27;47559;-66
2023/04/17 10:51:22;;;;;;;;;63.00;48.00;;;;;22.53;35.29;101860.03;5067015;28;45916;-66
2023/04/17 10:53:50;;;;;;;;;83.25;73.50;;;;;22.43;35.67;101866.88;5077637;27;45371;-67
2023/04/17 10:56:24;;;;;;;;;77.75;64.50;;;;;22.40;35.53;101873.25;5087688;27;46176;-67
2023/04/17 10:58:57;;;;;;;;;78.00;67.00;;;;;22.40;35.88;101872.38;5075491;27;46375;-71
2023/04/17 11:01:25;;;;;;;;;74.50;62.75;;;;;22.40;36.04;101865.25;5070409;27;45311;-67
2023/04/17 11:03:50;;;;;;;;;76.00;63.25;;;;;22.34;35.81;101862.94;5073097;27;45552;-68
2023/04/17 11:06:16;;;;;;;;;73.00;60.50;;;;;22.40;36.50;101864.38;5076950;27;46445;-69
2023/04/17 11:08:44;;;;;;;;;67.25;50.50;;;;;22.40;36.22;101864.38;5075224;27;56430;-67
2023/04/17 11:11:10;;;;;;;;;57.75;46.00;;;;;22.39;36.19;101862.66;5074754;27;45912;-68
2023/04/17 11:13:36;;;;;;;;;62.25;48.00;;;;;22.36;36.03;101853.03;5078013;27;45509;-65
2023/04/17 11:16:03;;;;;;;;;59.00;44.50;;;;;22.34;36.40;101852.25;5075480;28;45607;-65
2023/04/17 11:18:28;;;;;;;;;47.00;37.75;;;;;22.35;36.14;101862.84;5077329;27;46138;-66
2023/04/17 11:20:54;;;;;;;;;49.50;39.00;;;;;22.35;36.14;101860.19;5059374;28;68749;-66
2023/04/17 11:23:19;;;;;;;;;49.25;38.25;;;;;22.33;35.98;101840.75;5076864;27;45283;-66